Decatur, GA

6:03 AM EST on February 11, 2016 (GMT -0500)
MesoWest | | Change Station
CLOSE
Current Station
Personal Weather Station
Location: Decatur, GA
Elevation: 921 ft
Nearby Weather Stations

Elev 921 ft 33.71 °N, 84.21 °W | Updated 53 minutes ago

Clear
Clear
31 °F
Feels Like 31 °F
N
2
Wind Variable Wind from SW
Gusts 5.0 mph

Today
High -- | Low -- °F
--% Chance of Precip.
Yesterday
High -- | Low -- °F
Precip. -- in
Pressure 30.20 in
Visibility 10.0 miles
Clouds Clear
Windchill 31 °F
Dew Point 13 °F
Humidity 47%
Rainfall in
Snow Depth Not available.
7:25 AM 6:17 PM
Waxing Crescent, 11% visible
METAR KPDK 111053Z AUTO 00000KT 10SM CLR M03/M09 A3014 RMK AO2 SLP226 T10281094
Pressure 30.20 in
Visibility 10.0 miles
Clouds Clear
Windchill 31 °F
Dew Point 13 °F
Humidity 47%
Rainfall in
Snow Depth Not available.
7:25 AM 6:17 PM
Waxing Crescent, 11% visible
METAR KPDK 111053Z AUTO 00000KT 10SM CLR M03/M09 A3014 RMK AO2 SLP226 T10281094

10-Day Weather Forecast

Almanac

Astronomy

Feb. 11, 2016 Rise Set
Actual Time
Civil Twilight
Nautical Twilight
Astronomical Twilight
Moon
Length of Visible Light
Length of Day
Tomorrow will be .
, % of the Moon is Illuminated

Today's Extremes

State Highs State Lows

Community

WunderPhotos

Upload Photos

1,892,030 photos uploaded!

WunderBlog® & News

Nearby

Air Quality

  Air Quality AQ Index Pollutant
Not available.

Snow Depth

Station Depth Elevation

Earthquake Activity

City Distance Mag. Time & Date
Minimum magnitude displayed is 2.5.

Coastal Water Temperatures

Place Temperature

Stations

Nearby Weather Stations

Station Location Temp. Windchill Dew Point Humidity Wind Precip. Elev Updated Type
                   

Watches & Warnings

There are currently no watches in effect.